Time;durP1;ratioP1;P1;durP2;ratioP2;P2;SDS_P1;SDS_P2;PMS_P1;PMS_P2;Temp;Humidity;BMP_temperature;BMP_pressure;BME280_temperature;BME280_humidity;BME280_pressure;Samples;Min_cycle;Max_cycle;Signal;HPM_P1;HPM_P2
2023/05/02 00:00:27;;;;;;;14.77;8.82;;;10.90;99.90;;;;;;5050505;28;20399;-61
2023/05/02 00:02:53;;;;;;;16.98;8.60;;;10.80;99.90;;;;;;5048457;28;20051;-60
2023/05/02 00:05:18;;;;;;;15.23;8.50;;;10.80;99.90;;;;;;5050261;28;20033;-60
2023/05/02 00:07:45;;;;;;;13.45;8.77;;;10.80;99.90;;;;;;5051841;28;20029;-60
2023/05/02 00:10:11;;;;;;;17.83;8.57;;;10.80;99.90;;;;;;5051088;28;20464;-61
2023/05/02 00:12:37;;;;;;;15.05;8.07;;;10.70;99.90;;;;;;5051730;28;20131;-61
2023/05/02 00:15:03;;;;;;;15.45;7.95;;;10.70;99.90;;;;;;5049188;28;20045;-61
2023/05/02 00:17:29;;;;;;;14.77;7.10;;;10.70;99.90;;;;;;5045450;28;20113;-60
2023/05/02 00:19:55;;;;;;;14.63;7.65;;;10.60;99.90;;;;;;5041706;28;21253;-60
2023/05/02 00:22:21;;;;;;;16.17;6.80;;;10.60;99.90;;;;;;5039551;28;20076;-61
2023/05/02 00:24:46;;;;;;;14.88;6.43;;;10.50;99.90;;;;;;5038427;28;20041;-60
2023/05/02 00:27:13;;;;;;;18.88;7.25;;;10.50;99.90;;;;;;5040535;28;20043;-60
2023/05/02 00:29:39;;;;;;;14.13;6.20;;;10.40;99.90;;;;;;5050511;28;20048;-61
2023/05/02 00:32:05;;;;;;;8.90;5.63;;;10.50;99.90;;;;;;5036181;28;20511;-60
2023/05/02 00:34:31;;;;;;;12.18;6.25;;;10.40;99.90;;;;;;5036065;28;20048;-61
2023/05/02 00:36:57;;;;;;;13.07;5.10;;;10.30;99.90;;;;;;5037905;28;20278;-61
2023/05/02 00:39:23;;;;;;;9.30;4.45;;;10.30;99.90;;;;;;5050078;28;20087;-60
2023/05/02 00:41:55;;;;;;;12.32;4.05;;;10.20;99.90;;;;;;5049161;28;20051;-60
2023/05/02 00:44:21;;;;;;;10.38;4.35;;;10.20;99.90;;;;;;5042760;28;20041;-60
2023/05/02 00:46:47;;;;;;;13.70;4.20;;;10.10;99.90;;;;;;5036889;28;20439;-59
2023/05/02 00:49:12;;;;;;;10.98;3.78;;;10.10;99.90;;;;;;5040025;28;20113;-61
2023/05/02 00:51:39;;;;;;;13.68;4.45;;;10.10;99.90;;;;;;5019423;28;20431;-61
2023/05/02 00:54:05;;;;;;;11.20;4.20;;;10.00;99.90;;;;;;5037414;28;20052;-60
2023/05/02 00:56:31;;;;;;;9.63;3.70;;;10.00;99.90;;;;;;5037449;28;20033;-61
2023/05/02 00:58:57;;;;;;;10.02;3.80;;;10.00;99.90;;;;;;5037000;28;20037;-61
2023/05/02 01:01:35;;;;;;;8.40;3.13;;;9.90;99.90;;;;;;5035196;28;20045;-61
2023/05/02 01:04:03;;;;;;;12.55;2.90;;;9.90;99.90;;;;;;5039393;28;20033;-60
2023/05/02 01:06:41;;;;;;;8.93;2.90;;;9.90;99.90;;;;;;5037192;28;20071;-61
2023/05/02 01:09:39;;;;;;;7.03;2.63;;;9.90;99.90;;;;;;5034850;28;20455;-60
2023/05/02 01:12:08;;;;;;;9.98;3.25;;;9.90;99.90;;;;;;5037612;28;20037;-61
2023/05/02 01:14:40;;;;;;;6.82;2.72;;;9.90;99.90;;;;;;5037593;28;20377;-60
2023/05/02 01:17:11;;;;;;;7.38;2.53;;;9.90;99.90;;;;;;5033074;28;20053;-60
2023/05/02 01:20:16;;;;;;;7.80;2.47;;;9.80;99.90;;;;;;5048220;28;20365;-61
2023/05/02 01:22:43;;;;;;;6.15;2.30;;;9.80;99.90;;;;;;5006739;28;20171;-60
2023/05/02 01:25:30;;;;;;;6.18;2.50;;;9.90;99.90;;;;;;4990753;28;20148;-60
2023/05/02 01:28:10;;;;;;;6.75;3.13;;;9.80;99.90;;;;;;4982946;28;20042;-60
2023/05/02 01:30:40;;;;;;;5.22;2.10;;;9.90;99.90;;;;;;4989703;28;20088;-61
2023/05/02 01:33:10;;;;;;;7.30;2.55;;;9.80;99.90;;;;;;4992522;28;20162;-60
2023/05/02 01:35:36;;;;;;;8.40;2.25;;;9.80;99.90;;;;;;4990636;28;20089;-61
2023/05/02 01:38:04;;;;;;;5.88;2.25;;;9.80;99.90;;;;;;4959055;28;20600;-60
2023/05/02 01:40:31;;;;;;;8.60;2.33;;;9.80;99.90;;;;;;4992044;28;21497;-60
2023/05/02 01:42:58;;;;;;;6.68;2.03;;;9.80;99.90;;;;;;4994374;28;20128;-60
2023/05/02 01:45:25;;;;;;;8.05;2.35;;;9.80;99.90;;;;;;4997090;28;20494;-60
2023/05/02 01:47:51;;;;;;;8.55;2.38;;;9.80;99.90;;;;;;4982898;28;20037;-60
2023/05/02 01:50:22;;;;;;;5.38;1.80;;;9.80;99.90;;;;;;5005500;28;20503;-60
2023/05/02 01:52:51;;;;;;;6.38;2.05;;;9.80;99.90;;;;;;5001274;28;20563;-60
2023/05/02 01:55:17;;;;;;;6.57;2.28;;;9.80;99.90;;;;;;4997097;28;20112;-60
2023/05/02 01:57:45;;;;;;;6.32;2.28;;;9.70;99.90;;;;;;5017924;28;20045;-61
2023/05/02 02:00:12;;;;;;;5.38;2.17;;;9.70;99.90;;;;;;5044795;28;20460;-60
2023/05/02 02:02:41;;;;;;;7.07;1.88;;;9.70;99.90;;;;;;5044488;28;20037;-60
2023/05/02 02:05:08;;;;;;;7.50;2.83;;;9.80;99.90;;;;;;5038479;28;20036;-60
2023/05/02 02:07:34;;;;;;;10.43;2.42;;;9.80;99.90;;;;;;5047907;28;20094;-61
2023/05/02 02:10:00;;;;;;;5.38;2.20;;;9.70;99.90;;;;;;5046771;28;20040;-61
2023/05/02 02:12:27;;;;;;;5.88;2.10;;;9.70;99.90;;;;;;5046852;28;20048;-60
2023/05/02 02:15:02;;;;;;;5.63;2.05;;;9.70;99.90;;;;;;5043646;28;20403;-60
2023/05/02 02:17:42;;;;;;;7.28;1.92;;;9.70;99.90;;;;;;5047271;28;20056;-59
2023/05/02 02:20:10;;;;;;;4.60;2.13;;;9.70;99.90;;;;;;5047705;28;20049;-60
2023/05/02 02:22:41;;;;;;;6.57;2.05;;;9.70;99.90;;;;;;5047049;28;20068;-61
2023/05/02 02:25:10;;;;;;;7.35;2.10;;;9.60;99.90;;;;;;5045856;28;20076;-60
2023/05/02 02:27:37;;;;;;;5.75;2.20;;;9.60;99.90;;;;;;5048370;28;20060;-60
2023/05/02 02:30:03;;;;;;;6.68;2.38;;;9.70;99.90;;;;;;5045609;28;20069;-61
2023/05/02 02:32:29;;;;;;;4.00;1.98;;;9.60;99.90;;;;;;5044923;28;20507;-60
2023/05/02 02:34:55;;;;;;;6.32;2.53;;;9.60;99.90;;;;;;5045569;28;20041;-60
2023/05/02 02:37:29;;;;;;;4.15;2.40;;;9.60;99.90;;;;;;5044447;28;20053;-60
2023/05/02 02:40:25;;;;;;;8.38;2.30;;;9.60;99.90;;;;;;5046839;28;20041;-60
2023/05/02 02:43:08;;;;;;;4.45;2.05;;;9.60;99.90;;;;;;5024906;28;20046;-60
2023/05/02 02:45:37;;;;;;;;;;;9.60;99.90;;;;;;5026664;28;20416;-60
2023/05/02 02:48:33;;;;;;;8.02;2.80;;;9.50;99.90;;;;;;5025416;28;19996;-61
2023/05/02 02:51:12;;;;;;;8.50;3.05;;;9.30;99.90;;;;;;4967171;28;20418;-61
2023/05/02 02:53:48;;;;;;;9.80;2.83;;;9.20;99.90;;;;;;4965425;28;20073;-61
2023/05/02 02:56:18;;;;;;;15.45;3.00;;;9.00;99.90;;;;;;4966528;28;20098;-60
2023/05/02 02:58:50;;;;;;;15.10;4.20;;;8.90;99.90;;;;;;4967210;28;20042;-60
2023/05/02 03:01:21;;;;;;;13.70;3.33;;;8.80;99.90;;;;;;4966867;28;20062;-60
2023/05/02 03:03:50;;;;;;;21.13;4.40;;;8.80;99.90;;;;;;4945700;28;20140;-60
2023/05/02 03:06:17;;;;;;;15.20;3.97;;;8.70;99.90;;;;;;4964221;28;20046;-61
2023/05/02 03:08:44;;;;;;;14.73;3.80;;;8.70;99.90;;;;;;4965619;28;20058;-61
2023/05/02 03:11:09;;;;;;;22.77;4.70;;;8.60;99.90;;;;;;4947598;28;20121;-61
2023/05/02 03:13:36;;;;;;;17.30;3.83;;;8.60;99.90;;;;;;4962744;28;20043;-60
2023/05/02 03:16:04;;;;;;;20.05;4.05;;;8.50;99.90;;;;;;4963911;28;20050;-60
2023/05/02 03:18:30;;;;;;;19.83;3.92;;;8.50;99.90;;;;;;4964093;28;20129;-61
2023/05/02 03:20:56;;;;;;;19.48;3.95;;;8.40;99.90;;;;;;4998924;28;20060;-60
2023/05/02 03:23:21;;;;;;;23.02;4.90;;;8.50;99.90;;;;;;5000332;28;20045;-61
2023/05/02 03:25:47;;;;;;;19.25;4.75;;;8.40;99.90;;;;;;4983420;28;20045;-60
2023/05/02 03:28:12;;;;;;;18.42;3.85;;;8.40;99.90;;;;;;5025494;28;20124;-60
2023/05/02 03:30:39;;;;;;;17.63;4.10;;;8.40;99.90;;;;;;5049457;28;20468;-61
2023/05/02 03:33:07;;;;;;;22.13;4.35;;;8.30;99.90;;;;;;5052450;28;20048;-61
2023/05/02 03:35:33;;;;;;;15.95;3.90;;;8.30;99.90;;;;;;5043003;28;20041;-60
2023/05/02 03:37:58;;;;;;;16.67;4.13;;;8.20;99.90;;;;;;5037649;28;20071;-60
2023/05/02 03:40:25;;;;;;;20.77;4.18;;;8.20;99.90;;;;;;5037533;28;20040;-60
2023/05/02 03:42:51;;;;;;;14.65;4.60;;;8.20;99.90;;;;;;5037370;28;20429;-60
2023/05/02 03:45:17;;;;;;;21.73;4.75;;;8.20;99.90;;;;;;5040770;28;20041;-61
2023/05/02 03:47:42;;;;;;;24.35;4.85;;;8.10;99.90;;;;;;5038673;28;20049;-61
2023/05/02 03:50:08;;;;;;;19.98;4.10;;;8.10;99.90;;;;;;5040650;28;20455;-60
2023/05/02 03:52:34;;;;;;;15.75;3.65;;;8.10;99.90;;;;;;5020694;28;20512;-60
2023/05/02 03:55:01;;;;;;;23.02;4.70;;;8.10;99.90;;;;;;5051401;28;20047;-61
2023/05/02 03:57:29;;;;;;;20.33;4.72;;;8.10;99.90;;;;;;5042345;28;20484;-60
2023/05/02 03:59:55;;;;;;;14.32;4.00;;;8.00;99.90;;;;;;5038986;28;20037;-61
2023/05/02 04:02:20;;;;;;;22.02;4.05;;;8.00;99.90;;;;;;5039782;28;20044;-60
2023/05/02 04:04:46;;;;;;;19.92;4.00;;;8.00;99.90;;;;;;5040336;28;20048;-60
2023/05/02 04:07:17;;;;;;;28.20;4.95;;;8.00;99.90;;;;;;5049752;28;20029;-61
2023/05/02 04:09:43;;;;;;;22.10;4.88;;;8.00;99.90;;;;;;5048721;28;20033;-60
2023/05/02 04:12:08;;;;;;;15.68;3.70;;;7.90;99.90;;;;;;5049840;28;20041;-61
2023/05/02 04:14:34;;;;;;;16.50;3.70;;;7.90;99.90;;;;;;5049412;28;20071;-60
2023/05/02 04:17:00;;;;;;;12.30;3.50;;;7.90;99.90;;;;;;5044683;28;20033;-60
2023/05/02 04:19:26;;;;;;;17.60;3.25;;;7.80;99.90;;;;;;5040934;28;20041;-60
2023/05/02 04:21:52;;;;;;;22.90;3.75;;;7.80;99.90;;;;;;5048269;28;20488;-60
2023/05/02 04:24:17;;;;;;;15.27;2.95;;;7.80;99.90;;;;;;5042706;28;20068;-60
2023/05/02 04:26:46;;;;;;;15.40;3.30;;;7.80;99.90;;;;;;5047836;28;20033;-61
2023/05/02 04:29:12;;;;;;;23.65;4.00;;;7.70;99.90;;;;;;5039904;28;20578;-60
2023/05/02 04:31:38;;;;;;;17.52;3.10;;;7.70;99.90;;;;;;5037615;28;22175;-60
2023/05/02 04:34:05;;;;;;;15.23;2.97;;;7.70;99.90;;;;;;5037472;28;20545;-60
2023/05/02 04:36:31;;;;;;;13.30;2.70;;;7.70;99.90;;;;;;5036688;28;21271;-61
2023/05/02 04:38:57;;;;;;;11.90;3.50;;;7.70;99.90;;;;;;5041611;28;20068;-60
2023/05/02 04:41:22;;;;;;;13.85;3.03;;;7.70;99.90;;;;;;5036337;28;20052;-60
2023/05/02 04:43:48;;;;;;;13.73;2.90;;;7.70;99.90;;;;;;5037051;28;20143;-60
2023/05/02 04:46:15;;;;;;;10.68;2.72;;;7.70;99.90;;;;;;5037839;28;20710;-61
2023/05/02 04:48:41;;;;;;;14.40;2.63;;;7.70;99.90;;;;;;5040504;28;20069;-60
2023/05/02 04:51:08;;;;;;;15.88;3.88;;;7.60;99.90;;;;;;5047153;28;21808;-60
2023/05/02 04:53:34;;;;;;;12.48;2.70;;;7.60;99.90;;;;;;5035786;28;20052;-62
2023/05/02 04:55:59;;;;;;;10.25;2.60;;;7.60;99.90;;;;;;5049551;28;20518;-60
2023/05/02 04:58:25;;;;;;;10.80;2.80;;;7.60;99.90;;;;;;5037456;28;20055;-60
2023/05/02 05:00:51;;;;;;;15.00;2.65;;;7.70;99.90;;;;;;5040091;28;20045;-60
2023/05/02 05:03:16;;;;;;;12.00;2.60;;;7.70;99.90;;;;;;5040806;28;20051;-60
2023/05/02 05:05:42;;;;;;;9.10;2.10;;;7.70;99.90;;;;;;5035183;28;20437;-61
2023/05/02 05:08:07;;;;;;;17.92;3.22;;;7.70;99.90;;;;;;5046896;28;20053;-60
2023/05/02 05:10:33;;;;;;;8.23;2.33;;;7.70;99.90;;;;;;5042256;28;20430;-61
2023/05/02 05:12:59;;;;;;;7.82;2.30;;;7.70;99.90;;;;;;5034574;28;20037;-60
2023/05/02 05:15:26;;;;;;;13.20;2.17;;;7.70;99.90;;;;;;5038040;28;20088;-60
2023/05/02 05:17:51;;;;;;;10.98;2.92;;;7.80;99.90;;;;;;5037704;28;20056;-60
2023/05/02 05:20:17;;;;;;;11.05;2.05;;;7.80;99.90;;;;;;5038384;28;20044;-62
2023/05/02 05:22:43;;;;;;;7.80;1.90;;;7.80;99.90;;;;;;5037495;28;20041;-61
2023/05/02 05:25:09;;;;;;;9.27;1.85;;;7.80;99.90;;;;;;5048319;28;20037;-60
2023/05/02 05:27:35;;;;;;;11.00;2.13;;;7.70;99.90;;;;;;5047538;28;20067;-61
2023/05/02 05:30:01;;;;;;;10.30;2.00;;;7.80;99.90;;;;;;5028869;28;20045;-61
2023/05/02 05:32:27;;;;;;;8.82;1.98;;;7.70;99.90;;;;;;5032925;28;20049;-61
2023/05/02 05:34:53;;;;;;;5.50;1.50;;;7.70;99.90;;;;;;5038862;28;20531;-61
2023/05/02 05:37:20;;;;;;;18.25;2.10;;;7.80;99.90;;;;;;5038513;28;20235;-61
2023/05/02 05:39:46;;;;;;;5.85;1.70;;;7.70;99.90;;;;;;5037452;28;20394;-60
2023/05/02 05:42:12;;;;;;;6.18;1.50;;;7.80;99.90;;;;;;5036512;28;20049;-61
2023/05/02 05:44:38;;;;;;;6.35;1.90;;;7.90;99.90;;;;;;5033881;28;20046;-61
2023/05/02 05:47:04;;;;;;;10.82;1.60;;;7.90;99.90;;;;;;5038693;28;20042;-60
2023/05/02 05:49:30;;;;;;;6.72;1.65;;;8.00;99.90;;;;;;5035998;28;20040;-60
2023/05/02 05:51:56;;;;;;;6.10;1.65;;;8.00;99.90;;;;;;5037476;28;20155;-61
2023/05/02 05:54:22;;;;;;;8.10;1.65;;;8.10;99.90;;;;;;5038558;28;20140;-60
2023/05/02 05:56:48;;;;;;;6.55;1.60;;;8.10;99.90;;;;;;5037487;28;20179;-61
2023/05/02 05:59:14;;;;;;;8.23;1.70;;;8.20;99.90;;;;;;5049175;28;20049;-60
2023/05/02 06:01:39;;;;;;;8.02;1.85;;;8.30;99.90;;;;;;5042634;28;20536;-60
2023/05/02 06:04:06;;;;;;;6.45;1.65;;;8.30;99.90;;;;;;5040122;28;21338;-60
2023/05/02 06:06:32;;;;;;;10.98;1.90;;;8.40;99.90;;;;;;5027804;28;20453;-60
2023/05/02 06:08:58;;;;;;;6.40;2.13;;;8.40;99.90;;;;;;5038060;28;20036;-60
2023/05/02 06:11:24;;;;;;;6.95;1.60;;;8.50;99.90;;;;;;5046978;28;20037;-60
2023/05/02 06:13:51;;;;;;;8.63;2.08;;;8.40;99.90;;;;;;5037537;28;20134;-60
2023/05/02 06:16:19;;;;;;;3.58;1.63;;;8.50;99.90;;;;;;5048322;28;20055;-61
2023/05/02 06:18:50;;;;;;;7.07;2.08;;;8.50;99.90;;;;;;5036880;28;20098;-61
2023/05/02 06:21:16;;;;;;;8.77;1.90;;;8.60;99.90;;;;;;5037694;28;21280;-62
2023/05/02 06:23:41;;;;;;;10.32;1.83;;;8.60;99.90;;;;;;5043401;28;20045;-60
2023/05/02 06:26:08;;;;;;;11.15;2.70;;;8.60;99.90;;;;;;5047884;28;20041;-62
2023/05/02 06:28:34;;;;;;;5.93;2.25;;;8.60;99.90;;;;;;5018860;28;20048;-61
2023/05/02 06:31:02;;;;;;;11.82;1.95;;;8.50;99.90;;;;;;5048367;28;20039;-61
2023/05/02 06:33:28;;;;;;;6.25;1.95;;;8.50;99.90;;;;;;5047571;28;20033;-61
2023/05/02 06:35:54;;;;;;;8.43;2.13;;;8.40;99.90;;;;;;5046006;28;20107;-62
2023/05/02 06:38:20;;;;;;;8.20;1.92;;;8.30;99.90;;;;;;5045173;28;20038;-61
2023/05/02 06:40:46;;;;;;;7.63;2.05;;;8.40;99.90;;;;;;5051258;28;20037;-61
2023/05/02 06:43:13;;;;;;;6.20;1.70;;;8.50;99.90;;;;;;5054157;28;20541;-60
2023/05/02 06:45:39;;;;;;;8.15;1.85;;;8.70;99.90;;;;;;5051578;28;20127;-61
2023/05/02 06:48:05;;;;;;;9.85;1.88;;;8.90;99.90;;;;;;5052393;28;20506;-63
2023/05/02 06:50:31;;;;;;;12.20;2.00;;;9.00;99.90;;;;;;5052283;28;20048;-62
2023/05/02 06:52:57;;;;;;;9.63;2.20;;;8.90;99.90;;;;;;5052801;28;20041;-61
2023/05/02 06:55:23;;;;;;;7.05;1.63;;;8.90;99.90;;;;;;5052570;28;20040;-61
2023/05/02 06:57:49;;;;;;;9.52;1.83;;;8.90;99.90;;;;;;5052791;28;20543;-61
2023/05/02 07:00:16;;;;;;;11.38;2.03;;;8.90;99.90;;;;;;5052626;28;20037;-62
2023/05/02 07:02:43;;;;;;;10.55;2.45;;;9.00;99.90;;;;;;5053638;28;20187;-61
2023/05/02 07:05:08;;;;;;;8.48;1.98;;;9.10;99.90;;;;;;5052438;28;20037;-61
2023/05/02 07:07:34;;;;;;;5.68;1.98;;;9.10;99.90;;;;;;5052340;28;20048;-61
2023/05/02 07:10:00;;;;;;;6.68;1.90;;;9.20;99.90;;;;;;5052395;28;20064;-61
2023/05/02 07:12:26;;;;;;;10.27;1.95;;;9.20;99.90;;;;;;5053172;28;20040;-61
2023/05/02 07:14:51;;;;;;;12.80;3.50;;;9.10;99.90;;;;;;5054055;28;20080;-62
2023/05/02 07:17:17;;;;;;;6.68;2.40;;;9.20;99.90;;;;;;5053682;28;20113;-61
2023/05/02 07:19:43;;;;;;;12.18;2.63;;;9.20;99.90;;;;;;5052305;28;20102;-61
2023/05/02 07:22:09;;;;;;;8.90;2.22;;;9.20;99.90;;;;;;5053402;28;20044;-62
2023/05/02 07:24:34;;;;;;;9.00;2.40;;;9.20;99.90;;;;;;5051854;28;20484;-62
2023/05/02 07:27:00;;;;;;;11.23;3.03;;;9.30;99.90;;;;;;5052298;28;20033;-63
2023/05/02 07:29:26;;;;;;;7.88;2.40;;;9.30;99.90;;;;;;5053320;28;20075;-61
2023/05/02 07:31:52;;;;;;;11.52;3.35;;;9.30;99.90;;;;;;5051687;28;20045;-63
2023/05/02 07:34:17;;;;;;;10.30;2.50;;;9.30;99.90;;;;;;5051886;28;20045;-62
2023/05/02 07:36:43;;;;;;;7.50;2.50;;;9.20;99.90;;;;;;5052200;28;20626;-62
2023/05/02 07:39:11;;;;;;;11.77;2.17;;;9.20;99.90;;;;;;5052114;28;20048;-60
2023/05/02 07:41:37;;;;;;;12.35;2.60;;;9.20;99.90;;;;;;5051877;28;20041;-61
2023/05/02 07:44:03;;;;;;;10.00;3.10;;;9.20;99.90;;;;;;5051593;28;20430;-61
2023/05/02 07:46:28;;;;;;;9.30;2.30;;;9.20;99.90;;;;;;5053327;28;20044;-62
2023/05/02 07:48:54;;;;;;;12.68;2.63;;;9.30;99.90;;;;;;5051478;28;20044;-60
2023/05/02 07:51:20;;;;;;;7.55;2.40;;;9.20;99.90;;;;;;5051747;28;20435;-61
2023/05/02 07:53:49;;;;;;;9.23;2.63;;;9.30;99.90;;;;;;5050278;28;20381;-62
2023/05/02 07:56:14;;;;;;;14.98;2.63;;;9.20;99.90;;;;;;5050710;28;20411;-61
2023/05/02 07:58:40;;;;;;;11.35;2.92;;;9.20;99.90;;;;;;5051537;28;20094;-61
2023/05/02 08:01:05;;;;;;;11.35;2.42;;;9.20;99.90;;;;;;5050574;28;20045;-61
2023/05/02 08:03:31;;;;;;;8.70;2.25;;;9.30;99.90;;;;;;5050114;28;20112;-61
2023/05/02 08:05:57;;;;;;;9.05;2.25;;;9.30;99.90;;;;;;5051094;28;20051;-61
2023/05/02 08:08:22;;;;;;;8.65;2.13;;;9.20;99.90;;;;;;5050117;28;20061;-61
2023/05/02 08:10:50;;;;;;;9.80;2.40;;;9.20;99.90;;;;;;5051095;28;20037;-61
2023/05/02 08:13:16;;;;;;;6.95;2.20;;;9.20;99.90;;;;;;5050084;28;20048;-61
2023/05/02 08:15:41;;;;;;;13.93;3.13;;;9.20;99.90;;;;;;5051406;28;20075;-61
2023/05/02 08:18:07;;;;;;;8.40;2.80;;;9.20;99.90;;;;;;5049810;28;20045;-63
2023/05/02 08:20:33;;;;;;;9.18;2.70;;;9.20;99.90;;;;;;5049984;28;20053;-61
2023/05/02 08:22:58;;;;;;;13.30;2.60;;;9.20;99.90;;;;;;5050959;28;20053;-61
2023/05/02 08:25:24;;;;;;;13.80;2.95;;;9.10;99.90;;;;;;5049786;28;20033;-60
2023/05/02 08:27:50;;;;;;;13.32;2.85;;;9.10;99.90;;;;;;5049826;28;20468;-61
2023/05/02 08:30:15;;;;;;;7.88;2.22;;;9.20;99.90;;;;;;5051299;28;20069;-61
2023/05/02 08:32:41;;;;;;;11.70;2.67;;;9.20;99.90;;;;;;5050120;28;20454;-61
2023/05/02 08:35:07;;;;;;;10.57;2.78;;;9.20;99.90;;;;;;5051053;28;20447;-61
2023/05/02 08:37:33;;;;;;;11.07;2.88;;;9.20;99.90;;;;;;5050922;28;20045;-61
2023/05/02 08:39:59;;;;;;;8.10;2.40;;;9.40;99.90;;;;;;5050780;28;20387;-61
2023/05/02 08:42:26;;;;;;;10.63;3.30;;;9.40;99.90;;;;;;5049682;28;20546;-62
2023/05/02 08:44:52;;;;;;;9.35;2.80;;;9.50;99.90;;;;;;5033351;28;20029;-61
2023/05/02 08:47:20;;;;;;;7.20;2.80;;;9.50;99.90;;;;;;5049409;28;20029;-61
2023/05/02 08:49:47;;;;;;;6.97;2.30;;;9.60;99.90;;;;;;5050935;28;20107;-61
2023/05/02 08:52:14;;;;;;;12.27;2.58;;;9.50;99.90;;;;;;5012124;28;1093108;-61
2023/05/02 08:54:41;;;;;;;9.45;2.25;;;9.50;99.90;;;;;;5051621;28;20102;-61
2023/05/02 08:57:07;;;;;;;9.10;2.42;;;9.50;99.90;;;;;;5050129;28;20110;-61
2023/05/02 08:59:32;;;;;;;12.43;2.70;;;9.50;99.90;;;;;;5050318;28;20037;-61
2023/05/02 09:02:04;;;;;;;5.00;2.20;;;9.50;99.90;;;;;;5050720;28;20041;-61
2023/05/02 09:04:33;;;;;;;10.20;2.35;;;9.70;99.90;;;;;;5050516;28;20029;-61
2023/05/02 09:07:00;;;;;;;10.52;2.30;;;9.70;99.90;;;;;;5051587;28;20108;-61
2023/05/02 09:09:26;;;;;;;8.90;2.25;;;9.80;99.90;;;;;;5051302;28;20021;-61
2023/05/02 09:11:52;;;;;;;8.98;2.05;;;10.00;99.90;;;;;;5051577;28;20043;-61
2023/05/02 09:14:17;;;;;;;7.63;2.15;;;10.10;99.90;;;;;;5049930;28;20186;-62
2023/05/02 09:16:43;;;;;;;11.10;2.28;;;10.30;99.90;;;;;;5050072;28;20076;-61
2023/05/02 09:19:10;;;;;;;8.70;2.22;;;10.40;99.90;;;;;;5051097;28;20096;-61
2023/05/02 09:21:40;;;;;;;8.52;2.20;;;10.50;99.90;;;;;;5051087;28;20064;-60
2023/05/02 09:24:20;;;;;;;8.48;2.47;;;10.60;99.90;;;;;;5066500;28;20498;-62
2023/05/02 09:26:57;;;;;;;6.20;1.95;;;10.70;99.90;;;;;;5049705;28;20087;-61
2023/05/02 09:29:23;;;;;;;5.50;2.00;;;10.80;99.90;;;;;;5051066;28;20127;-60
2023/05/02 09:31:49;;;;;;;7.75;2.03;;;10.90;99.90;;;;;;5051017;28;20060;-62
2023/05/02 09:34:15;;;;;;;6.97;2.28;;;10.90;99.90;;;;;;5050803;28;20044;-62
2023/05/02 09:37:04;;;;;;;10.82;2.20;;;10.80;99.90;;;;;;5050835;28;20102;-62
2023/05/02 09:39:30;;;;;;;6.47;2.13;;;10.80;98.40;;;;;;5050981;28;20041;-60
2023/05/02 09:41:57;;;;;;;7.28;1.98;;;10.70;99.60;;;;;;5051195;28;20124;-60
2023/05/02 09:44:25;;;;;;;8.95;2.00;;;10.70;99.90;;;;;;5049170;28;20043;-61
2023/05/02 09:46:52;;;;;;;11.25;2.45;;;10.60;99.90;;;;;;5049369;28;20455;-61
2023/05/02 09:49:18;;;;;;;9.65;2.90;;;10.50;99.40;;;;;;5049173;28;20049;-60
2023/05/02 09:51:48;;;;;;;6.70;1.60;;;10.50;99.60;;;;;;5049364;28;20556;-60
2023/05/02 09:54:32;;;;;;;7.20;2.50;;;10.50;99.50;;;;;;5049157;28;20041;-60
2023/05/02 09:56:58;;;;;;;9.13;1.85;;;10.40;99.50;;;;;;5050589;28;20446;-61
2023/05/02 09:59:24;;;;;;;8.57;2.33;;;10.50;99.90;;;;;;5048819;28;20036;-61
2023/05/02 10:02:03;;;;;;;7.63;2.28;;;10.50;99.90;;;;;;5050506;28;20053;-62
2023/05/02 10:04:30;;;;;;;9.75;1.95;;;10.60;99.90;;;;;;5049208;28;20044;-61
2023/05/02 10:06:57;;;;;;;11.40;1.80;;;10.70;99.30;;;;;;5050534;28;20132;-61
2023/05/02 10:09:24;;;;;;;7.55;1.75;;;10.80;99.00;;;;;;5049122;28;20049;-60
2023/05/02 10:11:55;;;;;;;9.73;2.22;;;10.90;98.60;;;;;;5050185;28;20041;-60
2023/05/02 10:14:24;;;;;;;7.47;1.95;;;10.90;98.40;;;;;;5048710;28;20048;-61
2023/05/02 10:17:11;;;;;;;6.28;1.70;;;11.10;98.40;;;;;;5050302;28;20040;-60
2023/05/02 10:19:49;;;;;;;7.35;2.05;;;11.20;98.70;;;;;;5048985;28;20391;-62
2023/05/02 10:22:18;;;;;;;7.18;1.73;;;11.30;97.10;;;;;;5048734;28;20137;-60
2023/05/02 10:24:45;;;;;;;4.72;1.85;;;11.50;98.10;;;;;;5050435;28;20091;-60
2023/05/02 10:27:10;;;;;;;5.65;1.90;;;11.50;97.10;;;;;;5050061;28;20056;-60
2023/05/02 10:29:38;;;;;;;6.70;1.55;;;11.50;96.90;;;;;;5049110;28;20045;-60
2023/05/02 10:32:04;;;;;;;7.78;1.67;;;11.60;97.10;;;;;;5050181;28;20045;-61
2023/05/02 10:34:32;;;;;;;4.50;2.13;;;11.70;96.90;;;;;;5050003;28;20428;-60
2023/05/02 10:37:01;;;;;;;4.45;1.50;;;11.90;97.30;;;;;;5048908;28;20049;-61
2023/05/02 10:39:28;;;;;;;4.50;1.65;;;12.00;96.40;;;;;;5049985;28;20047;-60
2023/05/02 10:41:56;;;;;;;5.60;1.42;;;12.20;95.50;;;;;;5048688;28;20049;-60
2023/05/02 10:44:38;;;;;;;5.18;1.52;;;12.50;96.50;;;;;;5049032;28;20076;-61
2023/05/02 10:47:22;;;;;;;6.43;1.63;;;12.80;96.50;;;;;;5050066;28;20051;-62
2023/05/02 10:49:57;;;;;;;8.10;1.52;;;12.80;93.50;;;;;;5049829;28;20036;-62
2023/05/02 10:52:34;;;;;;;4.93;1.20;;;13.10;95.50;;;;;;5049675;28;20060;-61
2023/05/02 10:55:21;;;;;;;4.13;1.73;;;13.00;95.10;;;;;;5049848;28;20041;-61
2023/05/02 10:57:59;;;;;;;4.30;1.30;;;12.80;92.80;;;;;;5048577;28;20033;-62
2023/05/02 11:00:28;;;;;;;4.85;1.30;;;12.90;94.90;;;;;;5049726;28;20448;-61
2023/05/02 11:02:53;;;;;;;5.35;1.30;;;13.00;95.00;;;;;;5049719;28;20037;-61
2023/05/02 11:05:21;;;;;;;4.00;1.40;;;12.90;93.90;;;;;;5048643;28;20098;-61
2023/05/02 11:07:47;;;;;;;5.05;1.30;;;12.70;92.60;;;;;;5032023;28;20121;-62
2023/05/02 11:10:16;;;;;;;4.57;1.58;;;12.50;92.30;;;;;;5049978;28;20532;-61
2023/05/02 11:12:52;;;;;;;3.13;1.23;;;12.40;93.20;;;;;;5048444;28;20048;-61
2023/05/02 11:15:27;;;;;;;3.90;1.20;;;12.40;92.60;;;;;;5049923;28;20037;-60
2023/05/02 11:18:07;;;;;;;4.45;1.35;;;12.50;93.40;;;;;;5032337;28;20033;-61
2023/05/02 11:20:34;;;;;;;4.80;1.30;;;12.30;92.00;;;;;;5048183;28;20059;-61
2023/05/02 11:23:15;;;;;;;4.55;1.20;;;12.30;92.50;;;;;;5048305;28;20488;-60
2023/05/02 11:25:43;;;;;;;5.38;1.20;;;12.20;92.00;;;;;;5049335;28;20391;-62
2023/05/02 11:28:48;;;;;;;5.47;1.30;;;12.20;92.30;;;;;;5053551;28;20425;-61
2023/05/02 11:31:26;;;;;;;4.25;1.27;;;12.10;94.20;;;;;;5050743;28;20488;-61
2023/05/02 11:33:59;;;;;;;2.92;1.23;;;12.00;92.30;;;;;;5051832;28;20044;-61
2023/05/02 11:36:32;;;;;;;2.70;1.08;;;12.00;91.90;;;;;;5053395;28;20094;-60
2023/05/02 11:38:59;;;;;;;3.75;1.10;;;12.10;92.20;;;;;;5051019;28;20068;-61
2023/05/02 11:41:41;;;;;;;3.70;1.08;;;12.30;93.50;;;;;;5052912;28;20175;-61
2023/05/02 11:44:07;;;;;;;2.05;0.90;;;12.40;92.80;;;;;;5053139;28;20049;-61
2023/05/02 11:46:35;;;;;;;4.90;1.05;;;12.60;93.40;;;;;;5051624;28;20117;-61
2023/05/02 11:49:01;;;;;;;6.13;1.20;;;13.00;94.20;;;;;;5051630;28;20094;-61
2023/05/02 11:51:27;;;;;;;3.28;0.88;;;13.00;93.50;;;;;;5052870;28;20119;-62
2023/05/02 11:53:53;;;;;;;4.57;1.10;;;13.10;93.00;;;;;;5052546;28;20040;-61
2023/05/02 11:56:26;;;;;;;2.97;0.88;;;13.20;94.30;;;;;;5052609;28;20509;-61
2023/05/02 11:58:59;;;;;;;4.00;1.10;;;13.30;92.90;;;;;;5051212;28;20153;-61
2023/05/02 12:01:25;;;;;;;13.27;1.42;;;13.30;92.50;;;;;;5052640;28;20051;-62
2023/05/02 12:04:01;;;;;;;4.35;1.00;;;13.00;92.10;;;;;;5051116;28;20033;-60
2023/05/02 12:06:27;;;;;;;3.70;1.08;;;12.90;93.10;;;;;;5052517;28;20444;-61
2023/05/02 12:09:06;;;;;;;4.88;1.10;;;12.90;93.80;;;;;;5052696;28;20116;-61
2023/05/02 12:11:32;;;;;;;3.53;1.00;;;12.90;93.20;;;;;;5052531;28;20033;-61
2023/05/02 12:13:58;;;;;;;3.22;1.30;;;12.80;93.00;;;;;;5052355;28;20040;-62
2023/05/02 12:16:24;;;;;;;2.88;0.98;;;12.60;92.80;;;;;;5051155;28;20551;-61
2023/05/02 12:18:50;;;;;;;4.13;1.33;;;12.60;93.60;;;;;;5051023;28;20427;-60
2023/05/02 12:21:16;;;;;;;2.60;1.20;;;12.60;93.50;;;;;;5052337;28;20037;-61
2023/05/02 12:23:42;;;;;;;4.68;1.15;;;12.80;93.70;;;;;;5034213;28;20467;-62
2023/05/02 12:26:20;;;;;;;4.88;1.10;;;12.80;93.30;;;;;;5033692;28;20496;-61
2023/05/02 12:28:57;;;;;;;3.25;1.20;;;12.80;92.30;;;;;;5051063;28;20068;-62
2023/05/02 12:31:24;;;;;;;4.63;1.38;;;12.90;93.90;;;;;;5052445;28;20040;-62
2023/05/02 12:33:51;;;;;;;3.70;1.17;;;12.70;93.50;;;;;;5051773;28;20061;-62
2023/05/02 12:36:18;;;;;;;2.97;0.98;;;12.50;93.30;;;;;;5050454;28;20127;-61
2023/05/02 12:38:49;;;;;;;3.72;1.30;;;12.30;94.90;;;;;;5050173;28;20159;-61
2023/05/02 12:41:15;;;;;;;3.38;1.02;;;12.10;95.40;;;;;;5051482;28;20052;-62
2023/05/02 12:43:47;;;;;;;6.03;2.20;;;12.00;96.30;;;;;;5050780;28;20036;-62
2023/05/02 12:46:12;;;;;;;4.22;1.20;;;12.00;96.40;;;;;;5050667;28;20036;-63
2023/05/02 12:48:38;;;;;;;7.43;1.30;;;11.80;96.00;;;;;;5050580;28;20044;-63
2023/05/02 12:51:04;;;;;;;5.65;1.55;;;11.70;96.70;;;;;;5051524;28;20041;-63
2023/05/02 12:53:40;;;;;;;3.97;1.50;;;11.70;97.30;;;;;;5052006;28;20048;-63
2023/05/02 12:56:07;;;;;;;2.33;1.30;;;11.70;97.40;;;;;;5051560;28;20045;-60